ストックホルム/アーランダ の空港の天気 - METARとTAF

ストックホルム・アーランダ空港 ( ESSA / ARN ) - スウェーデン ストックホルム
飛行場実況気象(Metar)
観測時間03/28 22:50 CEST (03/28 20:50 UTC)
風向・風速東北東 3m/s
視程10km以上
天気現象
なし
気温1℃
湿度64%
気圧1018hPa
METARESSA 282050Z 07005KT CAVOK 01/M05 Q1018 R01L/09//95 R08/09//95 R01R/09//95 NOSIG
過去の天気等 Google飛行場航空写真 Wunderground天気予報

過去48時間のMETAR

飛行場予報(TAF)
発表時間: 3/28 22:42 CEST (3/28 20:42 UTC)
予報対象時間: 28日22時 CEST ~ 29日20時 CEST
風向・風速東北東 3m/s
視程10km以上
なし
TAF AMD ESSA 282042Z 2820/2918 06006KT CAVOK